Time;durP1;ratioP1;P1;durP2;ratioP2;P2;SDS_P1;SDS_P2;PMS_P1;PMS_P2;Temp;Humidity;BMP_temperature;BMP_pressure;BME280_temperature;BME280_humidity;BME280_pressure;Samples;Min_cycle;Max_cycle;Signal;HPM_P1;HPM_P2
2021/09/12 00:01:45;;;;;;;10.90;5.00;;;;;;;;;;5014898;28;20437;-91
2021/09/12 00:04:13;;;;;;;12.33;4.77;;;;;;;;;;5014362;28;20438;-91
2021/09/12 00:06:42;;;;;;;5.50;5.00;;;;;;;;;;5018923;23;20516;-91
2021/09/12 00:09:09;;;;;;;5.20;4.70;;;;;;;;;;5014029;28;20401;-93
2021/09/12 00:11:37;;;;;;;5.30;4.80;;;13.90;99.90;;;;;;5011882;28;20442;-91
2021/09/12 00:14:05;;;;;;;6.40;4.30;;;;;;;;;;5008866;28;20440;-92
2021/09/12 00:16:32;;;;;;;7.37;5.23;;;;;;;;;;5013643;28;20437;-92
2021/09/12 00:18:59;;;;;;;7.90;4.93;;;;;;;;;;5014197;28;20470;-90
2021/09/12 00:21:26;;;;;;;9.80;4.33;;;;;;;;;;5026484;23;20480;-91
2021/09/12 00:23:53;;;;;;;6.20;5.13;;;;;;;;;;5006996;28;20492;-91
2021/09/12 00:26:20;;;;;;;5.53;4.90;;;;;;;;;;5009964;28;20447;-91
2021/09/12 00:28:49;;;;;;;7.87;5.23;;;;;;;;;;5024300;23;20489;-92
2021/09/12 00:31:16;;;;;;;6.10;5.00;;;;;;;;;;5010286;28;20471;-91
2021/09/12 00:33:43;;;;;;;8.30;4.50;;;;;;;;;;5007707;28;21189;-91
2021/09/12 00:36:10;;;;;;;6.13;4.87;;;;;;;;;;5011826;28;20479;-91
2021/09/12 00:38:37;;;;;;;5.63;5.03;;;;;;;;;;5012973;28;20480;-92
2021/09/12 00:41:04;;;;;;;15.13;5.60;;;;;;;;;;5012597;28;20430;-92
2021/09/12 00:43:32;;;;;;;7.63;5.30;;;;;;;;;;5018573;23;20496;-93
2021/09/12 00:46:06;;;;;;;4.80;4.30;;;;;;;;;;5011343;28;20430;-90
2021/09/12 00:48:33;;;;;;;6.63;4.80;;;;;;;;;;5008017;28;20433;-91
2021/09/12 00:51:00;;;;;;;6.07;5.53;;;;;;;;;;5007285;28;20775;-91
2021/09/12 00:53:30;;;;;;;5.33;4.93;;;13.40;99.90;;;;;;5008719;28;20455;-91
2021/09/12 00:56:00;;;;;;;5.57;5.07;;;13.40;99.90;;;;;;5004799;28;20457;-91
2021/09/12 00:58:28;;;;;;;9.23;5.40;;;13.30;99.90;;;;;;5006496;28;20962;-91
2021/09/12 01:00:57;;;;;;;7.70;5.60;;;13.30;99.90;;;;;;5010684;23;20434;-91
2021/09/12 01:03:25;;;;;;;5.30;4.80;;;13.30;99.90;;;;;;4985374;28;20455;-91
2021/09/12 01:05:53;;;;;;;6.60;5.17;;;;;;;;;;4970193;28;20524;-90
2021/09/12 01:08:21;;;;;;;5.67;5.23;;;;;;;;;;5002058;23;20499;-91
2021/09/12 01:10:50;;;;;;;5.57;5.07;;;13.10;99.90;;;;;;5017013;23;20433;-92
2021/09/12 01:13:17;;;;;;;6.83;4.83;;;;;;;;;;5009954;23;21007;-91
2021/09/12 01:18:13;;;;;;;5.00;4.60;;;;;;;;;;4968351;29;20511;-91
2021/09/12 01:20:41;;;;;;;8.10;5.03;;;12.90;99.90;;;;;;4964944;29;20803;-92
2021/09/12 01:23:08;;;;;;;7.23;4.93;;;;;;;;;;4965419;29;20497;-91
2021/09/12 01:25:38;;;;;;;7.27;5.60;;;12.40;99.90;;;;;;4989839;23;20493;-90
2021/09/12 01:28:06;;;;;;;5.87;4.70;;;;;;;;;;5013901;23;20442;-91
2021/09/12 01:30:34;;;;;;;7.50;5.70;;;12.80;99.90;;;;;;5051637;23;20499;-91
2021/09/12 01:33:01;;;;;;;6.33;5.00;;;;;;;;;;5013848;28;20509;-91
2021/09/12 01:35:28;;;;;;;5.10;4.70;;;;;;;;;;5011771;28;20460;-92
2021/09/12 01:37:57;;;;;;;5.17;4.73;;;;;;;;;;5019118;23;20804;-91
2021/09/12 01:40:24;;;;;;;5.70;5.10;;;;;;;;;;5006788;28;20533;-90
2021/09/12 01:42:52;;;;;;;5.20;4.70;;;;;;;;;;5017668;23;20493;-91
2021/09/12 01:45:20;;;;;;;6.70;4.47;;;;;;;;;;5007402;28;20463;-91
2021/09/12 01:47:47;;;;;;;5.30;4.80;;;;;;;;;;5007258;28;20441;-91
2021/09/12 01:50:16;;;;;;;6.03;5.30;;;12.60;99.90;;;;;;5007875;28;20448;-91
2021/09/12 01:52:43;;;;;;;6.20;5.60;;;;;;;;;;5008664;28;20557;-92
2021/09/12 01:55:11;;;;;;;8.23;5.80;;;;;;;;;;5010244;28;20440;-92
2021/09/12 01:57:39;;;;;;;7.70;6.27;;;;;;;;;;5008830;28;20459;-92
2021/09/12 02:00:11;;;;;;;5.90;5.20;;;12.60;99.90;;;;;;5005864;28;20492;-92
2021/09/12 02:02:38;;;;;;;5.83;5.33;;;;;;;;;;5005563;28;20439;-92
2021/09/12 02:05:06;;;;;;;6.97;5.17;;;12.70;99.90;;;;;;5003560;28;20519;-92
2021/09/12 02:07:33;;;;;;;6.37;5.60;;;;;;;;;;5004155;28;20440;-93
2021/09/12 02:10:01;;;;;;;7.33;5.13;;;;;;;;;;5009125;28;20909;-90
2021/09/12 02:12:28;;;;;;;5.97;4.97;;;;;;;;;;5008730;28;20446;-91
2021/09/12 02:14:55;;;;;;;5.60;5.03;;;;;;;;;;5005557;28;20434;-91
2021/09/12 02:17:24;;;;;;;7.03;5.10;;;12.40;99.90;;;;;;5008832;28;20449;-90
2021/09/12 02:19:51;;;;;;;6.47;5.20;;;;;;;;;;5003911;28;20484;-92
2021/09/12 02:22:18;;;;;;;5.50;4.93;;;;;;;;;;5006933;28;20445;-91
2021/09/12 02:24:45;;;;;;;6.00;5.40;;;;;;;;;;5005272;28;20446;-91
2021/09/12 02:27:12;;;;;;;7.27;4.90;;;;;;;;;;5008385;28;20429;-91
2021/09/12 02:29:40;;;;;;;5.70;5.10;;;;;;;;;;5005367;28;20461;-93
2021/09/12 02:32:07;;;;;;;5.37;4.80;;;;;;;;;;5007261;28;20451;-92
2021/09/12 02:34:36;;;;;;;7.53;5.20;;;;;;;;;;5015604;23;20515;-89
2021/09/12 02:37:03;;;;;;;6.30;5.70;;;;;;;;;;5008297;28;20452;-93
2021/09/12 02:39:30;;;;;;;6.50;4.80;;;;;;;;;;5007690;28;20488;-92
2021/09/12 02:41:57;;;;;;;6.20;5.17;;;;;;;;;;5006439;28;20445;-92
2021/09/12 02:44:24;;;;;;;7.97;5.07;;;;;;;;;;5008833;28;20441;-91
2021/09/12 02:46:51;;;;;;;9.80;4.67;;;;;;;;;;5007976;28;20904;-92
2021/09/12 02:49:19;;;;;;;5.60;4.53;;;;;;;;;;5008606;28;20447;-91
2021/09/12 02:51:47;;;;;;;7.60;4.47;;;;;;;;;;5011082;28;20465;-92
2021/09/12 02:54:14;;;;;;;6.03;4.83;;;;;;;;;;5012558;28;20461;-93
2021/09/12 02:56:41;;;;;;;6.73;5.27;;;;;;;;;;5014913;28;20449;-93
2021/09/12 02:59:08;;;;;;;5.27;4.00;;;;;;;;;;5013863;28;20492;-93
2021/09/12 03:01:35;;;;;;;9.83;4.80;;;;;;;;;;5016498;28;20429;-91
2021/09/12 03:04:03;;;;;;;5.03;4.60;;;;;;;;;;5014878;28;20445;-91
2021/09/12 03:06:30;;;;;;;5.10;4.60;;;;;;;;;;5007124;28;20445;-92
2021/09/12 03:08:58;;;;;;;7.57;4.60;;;11.80;99.90;;;;;;5011377;28;20440;-92
2021/09/12 03:11:25;;;;;;;7.07;4.70;;;;;;;;;;5011296;28;20453;-90
2021/09/12 03:13:52;;;;;;;6.63;5.10;;;;;;;;;;5011041;28;20818;-90
2021/09/12 03:16:21;;;;;;;8.47;4.33;;;;;;;;;;5010724;28;20437;-92
2021/09/12 03:18:48;;;;;;;5.53;5.03;;;;;;;;;;5009943;28;21158;-93
2021/09/12 03:21:15;;;;;;;5.10;4.30;;;;;;;;;;5004356;28;20463;-92
2021/09/12 03:23:42;;;;;;;5.57;4.80;;;;;;;;;;5008773;28;20858;-93
2021/09/12 03:26:11;;;;;;;5.50;4.67;;;11.60;99.90;;;;;;5009333;28;20441;-92
2021/09/12 03:28:38;;;;;;;6.10;4.37;;;;;;;;;;5007781;28;20488;-94
2021/09/12 03:31:06;;;;;;;5.83;4.67;;;11.60;99.90;;;;;;5010998;28;20525;-94
2021/09/12 03:33:33;;;;;;;8.30;4.00;;;;;;;;;;5014380;28;20473;-92
2021/09/12 03:36:00;;;;;;;4.63;3.90;;;;;;;;;;5012753;28;20800;-92
2021/09/12 03:38:27;;;;;;;8.90;4.40;;;;;;;;;;5008253;28;20453;-91
2021/09/12 03:40:54;;;;;;;6.10;3.93;;;;;;;;;;5012015;28;20459;-92
2021/09/12 03:43:22;;;;;;;4.33;3.93;;;11.40;99.90;;;;;;5011349;28;20465;-91
2021/09/12 03:45:50;;;;;;;6.30;4.13;;;;;;;;;;5012353;28;20414;-92
2021/09/12 03:48:17;;;;;;;4.53;4.13;;;;;;;;;;5013432;28;20441;-91
2021/09/12 03:50:45;;;;;;;4.60;4.20;;;;;;;;;;5012620;28;20473;-93
2021/09/12 03:53:12;;;;;;;4.77;4.27;;;;;;;;;;5010680;28;20575;-93
2021/09/12 03:55:39;;;;;;;4.80;4.30;;;;;;;;;;5012355;28;20436;-92
2021/09/12 03:58:06;;;;;;;4.40;4.00;;;;;;;;;;5009589;28;21183;-93
2021/09/12 04:00:35;;;;;;;8.83;4.00;;;;;;;;;;5004461;28;20483;-92
2021/09/12 04:03:02;;;;;;;5.20;4.43;;;;;;;;;;5006600;28;20437;-91
2021/09/12 04:05:29;;;;;;;4.27;3.87;;;;;;;;;;5004600;28;20433;-90
2021/09/12 04:07:56;;;;;;;8.67;4.27;;;;;;;;;;5005031;28;20940;-90
2021/09/12 04:10:24;;;;;;;6.43;4.00;;;;;;;;;;5003788;28;20451;-92
2021/09/12 04:12:51;;;;;;;7.27;3.50;;;;;;;;;;5004953;28;20483;-91
2021/09/12 04:15:18;;;;;;;4.10;3.80;;;;;;;;;;5001435;28;20458;-91
2021/09/12 04:17:46;;;;;;;5.10;4.20;;;;;;;;;;5001625;28;20463;-92
2021/09/12 04:20:14;;;;;;;5.13;4.17;;;11.00;99.90;;;;;;5000927;28;20481;-91
2021/09/12 04:22:41;;;;;;;10.50;3.40;;;;;;;;;;5000599;28;20909;-92
2021/09/12 04:25:08;;;;;;;4.93;4.30;;;;;;;;;;5002182;28;20445;-92
2021/09/12 04:27:35;;;;;;;7.03;4.73;;;;;;;;;;5002849;28;20452;-90
2021/09/12 04:30:03;;;;;;;11.23;4.27;;;;;;;;;;4997294;28;20520;-91
2021/09/12 04:32:30;;;;;;;4.60;4.20;;;;;;;;;;5001440;28;20464;-90
2021/09/12 04:34:58;;;;;;;4.07;3.73;;;11.00;99.90;;;;;;5007689;28;20493;-91
2021/09/12 04:37:25;;;;;;;4.80;4.33;;;;;;;;;;5004755;28;20450;-91
2021/09/12 04:39:52;;;;;;;7.33;4.23;;;;;;;;;;4999037;28;20496;-92
2021/09/12 04:42:19;;;;;;;3.97;3.67;;;;;;;;;;5000090;28;20450;-91
2021/09/12 04:44:46;;;;;;;4.23;3.90;;;;;;;;;;4998793;28;20449;-91
2021/09/12 04:47:14;;;;;;;4.00;3.70;;;;;;;;;;5000303;28;20449;-90
2021/09/12 04:49:41;;;;;;;4.23;3.90;;;;;;;;;;4999316;28;20445;-90
2021/09/12 04:52:09;;;;;;;6.53;3.87;;;10.80;99.90;;;;;;4997293;28;20476;-91
2021/09/12 04:54:36;;;;;;;6.33;3.73;;;;;;;;;;5002733;28;20460;-91
2021/09/12 04:57:04;;;;;;;7.00;3.67;;;;;;;;;;4976071;28;20526;-92
2021/09/12 04:59:33;;;;;;;3.90;3.50;;;;;;;;;;4975124;28;20481;-91
2021/09/12 05:02:00;;;;;;;3.97;3.57;;;;;;;;;;4981084;28;20481;-92
2021/09/12 05:04:27;;;;;;;3.97;3.57;;;;;;;;;;4981494;28;20458;-93
2021/09/12 05:06:55;;;;;;;4.83;3.50;;;;;;;;;;4979132;28;20454;-92
2021/09/12 05:09:24;;;;;;;4.20;3.80;;;10.80;99.90;;;;;;4979285;28;20462;-91
2021/09/12 05:11:51;;;;;;;4.03;3.63;;;;;;;;;;4979641;28;20458;-91
2021/09/12 05:14:18;;;;;;;4.20;3.80;;;;;;;;;;4977839;28;20458;-90
2021/09/12 05:16:45;;;;;;;4.10;3.53;;;;;;;;;;4979787;28;20473;-90
2021/09/12 05:19:12;;;;;;;3.63;3.33;;;;;;;;;;4981834;28;20489;-91
2021/09/12 05:21:39;;;;;;;3.50;3.07;;;;;;;;;;4982400;28;20497;-90
2021/09/12 05:24:07;;;;;;;3.40;3.10;;;;;;;;;;4985031;28;20434;-89
2021/09/12 05:26:35;;;;;;;7.20;3.80;;;10.90;99.90;;;;;;5004644;23;20493;-93
2021/09/12 05:29:03;;;;;;;4.73;4.00;;;;;;;;;;5004409;28;20444;-93
2021/09/12 05:31:30;;;;;;;6.00;3.77;;;;;;;;;;5004370;28;20437;-92
2021/09/12 05:33:57;;;;;;;4.13;3.33;;;;;;;;;;5005055;28;20492;-91
2021/09/12 05:36:24;;;;;;;4.23;3.80;;;;;;;;;;5005905;28;20459;-93
2021/09/12 05:38:51;;;;;;;4.63;4.20;;;;;;;;;;5004750;28;20457;-92
2021/09/12 05:41:18;;;;;;;5.20;4.80;;;;;;;;;;5006759;28;20410;-91
2021/09/12 05:43:46;;;;;;;4.03;3.70;;;12.00;99.90;;;;;;5006134;28;20437;-93
2021/09/12 05:46:14;;;;;;;4.10;3.70;;;;;;;;;;5006417;28;20414;-89
2021/09/12 05:48:41;;;;;;;4.47;3.57;;;;;;;;;;5003443;28;20449;-89
2021/09/12 05:51:08;;;;;;;3.17;2.97;;;;;;;;;;5005505;28;20442;-89
2021/09/12 05:53:35;;;;;;;4.70;3.10;;;;;;;;;;5002841;28;20434;-92
2021/09/12 05:56:02;;;;;;;4.70;2.87;;;;;;;;;;5005014;28;20426;-90
2021/09/12 05:58:30;;;;;;;4.50;2.90;;;;;;;;;;5027259;23;20507;-89
2021/09/12 06:01:01;;;;;;;3.60;3.27;;;13.80;99.90;;;;;;5004991;23;20520;-90
2021/09/12 06:03:28;;;;;;;4.50;2.73;;;;;;;;;;5004954;28;20548;-89
2021/09/12 06:05:55;;;;;;;2.77;2.57;;;;;;;;;;5009415;28;20456;-88
2021/09/12 06:08:22;;;;;;;6.07;2.43;;;;;;;;;;5006198;28;20450;-89
2021/09/12 06:10:49;;;;;;;5.73;2.40;;;;;;;;;;5000280;28;20442;-91
2021/09/12 06:13:17;;;;;;;3.50;2.90;;;;;;;;;;5000739;28;20426;-91
2021/09/12 06:15:44;;;;;;;4.47;2.70;;;;;;;;;;4997815;28;20489;-90
2021/09/12 06:18:13;;;;;;;3.13;2.83;;;15.80;99.90;;;;;;5002225;28;20434;-92
2021/09/12 06:20:40;;;;;;;3.37;3.07;;;;;;;;;;5008177;23;20485;-91
2021/09/12 06:23:07;;;;;;;2.97;2.67;;;;;;;;;;5005289;28;20815;-92
2021/09/12 06:25:35;;;;;;;3.93;2.87;;;;;;;;;;5004804;28;20452;-91
2021/09/12 06:28:02;;;;;;;11.13;3.30;;;;;;;;;;5000661;28;21007;-90
2021/09/12 06:30:29;;;;;;;3.07;2.77;;;;;;;;;;5003696;28;20461;-90
2021/09/12 06:32:56;;;;;;;3.50;3.20;;;;;;;;;;5004331;28;20469;-91
2021/09/12 06:35:38;;;;;;;3.40;2.90;;;;;;;;;;5011908;23;20453;-90
2021/09/12 06:38:09;;;;;;;6.63;2.83;;;18.20;99.90;;;;;;5011531;23;20610;-90
2021/09/12 06:40:36;;;;;;;3.23;2.93;;;;;;;;;;5008891;28;20473;-90
2021/09/12 06:43:18;;;;;;;3.43;3.20;;;18.10;99.90;;;;;;5004738;23;20505;-90
2021/09/12 06:45:46;;;;;;;4.20;3.57;;;;;;;;;;5005423;28;20469;-91
2021/09/12 06:48:14;;;;;;;2.83;2.63;;;;;;;;;;5004321;28;20442;-92
2021/09/12 06:50:55;;;;;;;4.57;3.50;;;;;;;;;;5113752;23;20457;-90
2021/09/12 06:53:24;;;;;;;2.60;2.40;;;;;;;;;;5007330;28;20537;-90
2021/09/12 06:55:51;;;;;;;3.40;2.10;;;;;;;;;;5006118;28;20485;-92
2021/09/12 06:58:19;;;;;;;2.90;2.60;;;;;;;;;;5006102;28;20430;-91
2021/09/12 07:00:46;;;;;;;4.37;2.53;;;;;;;;;;5005443;28;20465;-91
2021/09/12 07:03:14;;;;;;;2.57;2.37;;;;;;;;;;5006037;28;20438;-91
2021/09/12 07:05:41;;;;;;;2.37;2.17;;;;;;;;;;5006500;28;20460;-91
2021/09/12 07:08:08;;;;;;;5.17;2.77;;;;;;;;;;5006431;28;20801;-91
2021/09/12 07:10:36;;;;;;;2.57;2.37;;;20.60;99.90;;;;;;5012101;23;20493;-90
2021/09/12 07:13:03;;;;;;;2.40;2.20;;;;;;;;;;4999511;28;20448;-91
2021/09/12 07:15:31;;;;;;;3.07;2.40;;;;;;;;;;4999557;28;20453;-91
2021/09/12 07:17:58;;;;;;;3.00;2.20;;;;;;;;;;5002706;28;20449;-91
2021/09/12 07:20:26;;;;;;;4.00;2.47;;;;;;;;;;5002242;28;20485;-91
2021/09/12 07:22:53;;;;;;;2.83;2.63;;;;;;;;;;5001704;28;20467;-90
2021/09/12 07:25:20;;;;;;;3.60;2.67;;;;;;;;;;4951354;28;20556;-94
2021/09/12 07:27:48;;;;;;;3.60;2.57;;;22.00;99.90;;;;;;5000777;28;20445;-89
2021/09/12 07:30:17;;;;;;;2.83;2.57;;;22.10;99.90;;;;;;4992475;28;20809;-91
2021/09/12 07:32:44;;;;;;;2.57;2.37;;;;;;;;;;4993623;28;20473;-89
2021/09/12 07:35:12;;;;;;;2.53;2.33;;;21.70;99.90;;;;;;4993568;28;20453;-87
2021/09/12 07:37:39;;;;;;;2.67;2.47;;;;;;;;;;5004268;28;20452;-88
2021/09/12 07:40:09;;;;;;;2.67;2.47;;;21.90;99.90;;;;;;5004721;28;20475;-91
2021/09/12 07:42:40;;;;;;;3.10;2.80;;;22.20;99.90;;;;;;5005952;28;20449;-89
2021/09/12 07:45:10;;;;;;;2.90;2.70;;;22.20;99.90;;;;;;4997330;28;20495;-90
2021/09/12 07:47:37;;;;;;;2.57;2.37;;;;;;;;;;4999370;28;20449;-88
2021/09/12 07:50:04;;;;;;;2.67;2.47;;;;;;;;;;4999266;28;20461;-89
2021/09/12 07:52:31;;;;;;;2.90;2.70;;;;;;;;;;4997369;28;20475;-89
2021/09/12 07:54:58;;;;;;;3.20;3.00;;;;;;;;;;4998478;28;20921;-94
2021/09/12 07:57:25;;;;;;;4.30;3.03;;;;;;;;;;4998639;28;20814;-89
2021/09/12 07:59:53;;;;;;;3.10;2.80;;;;;;;;;;4997166;28;20487;-92
2021/09/12 08:02:21;;;;;;;3.93;2.77;;;;;;;;;;4997691;28;20453;-89
2021/09/12 08:04:48;;;;;;;3.27;2.90;;;;;;;;;;4996663;28;20913;-89
2021/09/12 08:07:15;;;;;;;2.67;2.43;;;;;;;;;;4996360;28;20453;-89
2021/09/12 08:09:42;;;;;;;2.57;2.37;;;;;;;;;;4996963;28;20492;-89
2021/09/12 08:12:10;;;;;;;3.20;2.27;;;;;;;;;;4997037;28;20512;-89
2021/09/12 08:14:37;;;;;;;2.23;2.03;;;;;;;;;;4995442;28;20808;-90
2021/09/12 08:17:04;;;;;;;3.10;2.30;;;;;;;;;;4999266;28;20460;-89
2021/09/12 08:19:33;;;;;;;2.50;2.30;;;;;;;;;;4998381;28;20453;-91
2021/09/12 08:22:00;;;;;;;3.00;2.40;;;;;;;;;;4994758;28;20501;-90
2021/09/12 08:24:27;;;;;;;3.40;2.50;;;;;;;;;;4996611;28;20448;-93
2021/09/12 08:26:55;;;;;;;2.40;2.20;;;;;;;;;;4996043;28;20474;-89
2021/09/12 08:29:22;;;;;;;2.13;1.93;;;;;;;;;;4992710;28;20454;-93
2021/09/12 08:31:49;;;;;;;2.23;2.03;;;;;;;;;;4995971;28;20478;-90
2021/09/12 08:34:17;;;;;;;2.63;2.40;;;;;;;;;;4992656;28;20446;-90
2021/09/12 08:36:46;;;;;;;2.50;2.13;;;;;;;;;;4995925;28;20457;-87
2021/09/12 08:39:13;;;;;;;2.70;2.50;;;;;;;;;;4993201;28;20465;-86
2021/09/12 08:41:40;;;;;;;2.13;1.93;;;;;;;;;;4995582;28;21007;-89
2021/09/12 08:44:09;;;;;;;2.43;2.23;;;23.60;99.90;;;;;;4994560;28;20453;-87
2021/09/12 08:46:36;;;;;;;2.67;2.47;;;;;;;;;;4992823;28;20452;-90
2021/09/12 08:49:03;;;;;;;2.20;2.10;;;;;;;;;;4991514;28;20488;-92
2021/09/12 08:51:30;;;;;;;2.50;2.30;;;;;;;;;;4995591;28;20449;-87
2021/09/12 08:54:00;;;;;;;2.10;1.87;;;24.80;99.90;;;;;;4995924;28;20453;-93
2021/09/12 08:56:27;;;;;;;2.20;2.00;;;;;;;;;;4996540;28;20995;-87
2021/09/12 08:58:54;;;;;;;3.40;2.00;;;;;;;;;;4996128;28;20460;-88
2021/09/12 09:01:31;;;;;;;3.87;2.27;;;24.50;99.90;;;;;;4995102;28;21019;-88
2021/09/12 09:04:01;;;;;;;2.10;2.00;;;24.40;99.90;;;;;;4995568;28;20456;-87
2021/09/12 09:06:34;;;;;;;2.30;2.10;;;25.30;99.90;;;;;;4995926;28;20450;-86
2021/09/12 09:09:03;;;;;;;2.40;2.20;;;24.90;99.90;;;;;;4997211;28;20453;-87
2021/09/12 09:11:32;;;;;;;2.13;1.93;;;25.20;99.10;;;;;;4991649;28;20996;-88
2021/09/12 09:14:14;;;;;;;2.30;2.10;;;25.90;98.90;;;;;;4995013;28;20457;-88
2021/09/12 09:16:41;;;;;;;2.70;2.27;;;;;;;;;;4994800;28;20449;-87
2021/09/12 09:19:09;;;;;;;4.43;2.40;;;;;;;;;;4993364;28;20461;-89
2021/09/12 09:21:38;;;;;;;3.97;2.40;;;24.90;99.90;;;;;;4991873;28;20489;-87
2021/09/12 09:24:17;;;;;;;1.90;1.80;;;24.90;99.90;;;;;;4995089;28;20445;-90
2021/09/12 09:26:46;;;;;;;2.70;2.40;;;24.60;99.90;;;;;;4991747;28;20457;-88
2021/09/12 09:29:13;;;;;;;2.30;2.10;;;;;;;;;;4993719;28;20477;-91
2021/09/12 09:31:41;;;;;;;2.63;2.30;;;;;;;;;;4994584;28;20473;-86
2021/09/12 09:34:20;;;;;;;2.20;1.83;;;24.50;99.90;;;;;;4994690;28;20818;-87
2021/09/12 09:36:48;;;;;;;2.07;1.90;;;;;;;;;;4992895;28;20476;-88
2021/09/12 09:39:35;;;;;;;2.90;2.10;;;24.50;99.90;;;;;;4994480;28;20454;-88
2021/09/12 09:42:02;;;;;;;2.13;1.83;;;;;;;;;;4991722;28;20580;-89
2021/09/12 09:44:29;;;;;;;1.97;1.57;;;;;;;;;;4994286;28;20457;-88
2021/09/12 09:46:57;;;;;;;2.33;1.90;;;;;;;;;;4995092;28;20449;-91
2021/09/12 09:49:25;;;;;;;2.37;1.90;;;24.20;97.40;;;;;;4995100;28;20457;-87
2021/09/12 09:51:54;;;;;;;1.90;1.80;;;23.40;99.60;;;;;;4992015;28;20480;-86
2021/09/12 09:54:24;;;;;;;2.67;1.80;;;24.50;98.60;;;;;;4994849;28;20448;-86
2021/09/12 09:56:52;;;;;;;1.93;1.67;;;;;;;;;;4994532;28;20449;-89
2021/09/12 09:59:20;;;;;;;2.20;2.00;;;25.20;98.10;;;;;;4995021;28;20453;-87
2021/09/12 10:01:53;;;;;;;2.17;1.60;;;25.50;98.90;;;;;;4995778;28;20505;-89
2021/09/12 10:04:21;;;;;;;2.23;1.60;;;26.00;98.50;;;;;;4993546;28;20449;-87
2021/09/12 10:06:50;;;;;;;1.43;1.33;;;25.90;96.70;;;;;;4996751;28;20548;-88
2021/09/12 10:09:18;;;;;;;2.57;1.87;;;25.10;97.30;;;;;;4997223;28;20453;-90
2021/09/12 10:11:51;;;;;;;2.10;1.90;;;24.40;98.90;;;;;;4996898;28;20485;-88
2021/09/12 10:14:22;;;;;;;1.67;1.57;;;24.30;99.90;;;;;;4995807;28;20544;-89
2021/09/12 10:16:50;;;;;;;1.60;1.50;;;25.10;99.90;;;;;;4994527;28;20448;-87
2021/09/12 10:19:32;;;;;;;1.80;1.53;;;26.00;97.90;;;;;;4994859;28;20456;-87
2021/09/12 10:22:00;;;;;;;4.00;1.73;;;;;;;;;;4989227;28;20841;-91
2021/09/12 10:24:27;;;;;;;1.87;1.77;;;;;;;;;;4994612;28;20474;-90
2021/09/12 10:26:55;;;;;;;2.20;2.00;;;29.10;95.70;;;;;;4994051;28;20764;-86
2021/09/12 10:29:45;;;;;;;1.60;1.50;;;26.00;96.80;;;;;;4992944;28;20445;-87
2021/09/12 10:32:31;;;;;;;1.90;1.77;;;26.30;97.90;;;;;;4993950;28;20485;-88
2021/09/12 10:35:24;;;;;;;2.20;2.00;;;26.20;94.80;;;;;;4991173;28;20445;-89
2021/09/12 10:37:57;;;;;;;2.23;2.03;;;24.90;96.90;;;;;;4976017;28;20527;-88
2021/09/12 10:40:24;;;;;;;1.87;1.77;;;;;;;;;;4995480;28;20457;-90
2021/09/12 10:42:53;;;;;;;2.40;2.20;;;;;;;;;;4993691;28;20497;-89
2021/09/12 10:45:26;;;;;;;2.27;2.07;;;23.20;99.50;;;;;;4992518;28;20450;-89
2021/09/12 10:48:21;;;;;;;1.90;1.80;;;23.40;99.60;;;;;;4993538;28;20524;-88
2021/09/12 10:50:48;;;;;;;2.50;2.23;;;23.40;98.90;;;;;;4994054;28;20445;-89
2021/09/12 10:53:15;;;;;;;2.20;2.00;;;;;;;;;;4993532;28;20876;-88
2021/09/12 10:56:04;;;;;;;3.60;2.20;;;24.90;97.30;;;;;;4990643;28;20460;-91
2021/09/12 10:58:33;;;;;;;4.07;2.10;;;26.20;94.50;;;;;;4994161;28;20453;-88
2021/09/12 11:01:02;;;;;;;1.97;1.87;;;27.00;94.60;;;;;;4992527;28;20497;-91
2021/09/12 11:03:30;;;;;;;2.10;1.90;;;26.50;95.70;;;;;;4993498;28;20533;-88
2021/09/12 11:05:57;;;;;;;2.10;1.90;;;;;;;;;;4993169;28;20449;-89
2021/09/12 11:08:35;;;;;;;16.03;12.50;;;27.40;97.50;;;;;;4993433;28;20456;-89
2021/09/12 11:11:03;;;;;;;1.80;1.70;;;;;;;;;;4993540;28;20488;-90
2021/09/12 11:13:30;;;;;;;4.77;4.27;;;;;;;;;;4996771;28;20467;-89
2021/09/12 11:16:10;;;;;;;2.73;2.53;;;27.60;94.70;;;;;;4996393;28;20449;-90
2021/09/12 11:18:43;;;;;;;7.20;6.40;;;;;;;;;;4997458;28;20815;-88
2021/09/12 11:21:11;;;;;;;14.67;13.27;;;;;;;;;;4996987;28;20511;-91
2021/09/12 11:23:40;;;;;;;3.37;3.10;;;;;;;;;;4997106;28;20449;-89
2021/09/12 11:26:07;;;;;;;1.97;1.87;;;;;;;;;;4996829;28;20489;-89
2021/09/12 11:28:35;;;;;;;3.53;2.17;;;;;;;;;;4996939;28;20465;-89
2021/09/12 11:31:02;;;;;;;9.67;8.97;;;;;;;;;;4995613;28;20473;-90
2021/09/12 11:33:51;;;;;;;13.07;11.20;;;24.60;99.90;;;;;;4997195;28;20464;-90
2021/09/12 11:36:18;;;;;;;3.27;2.77;;;;;;;;;;4994167;28;20532;-90
2021/09/12 11:38:55;;;;;;;3.93;3.53;;;22.70;99.80;;;;;;4996952;28;20485;-88
2021/09/12 11:41:23;;;;;;;4.40;2.90;;;22.80;99.90;;;;;;4996879;28;20484;-88
2021/09/12 11:43:54;;;;;;;2.80;2.03;;;;;;;;;;4993623;28;20971;-88
2021/09/12 11:46:22;;;;;;;2.43;2.23;;;;;;;;;;4992767;28;20457;-87
2021/09/12 11:48:58;;;;;;;5.00;4.53;;;22.50;99.90;;;;;;4995040;28;20453;-88
2021/09/12 11:51:27;;;;;;;3.53;2.63;;;22.40;99.90;;;;;;4995664;28;20471;-87
2021/09/12 11:54:12;;;;;;;4.83;4.43;;;22.20;99.90;;;;;;4999384;28;20453;-87
2021/09/12 11:56:41;;;;;;;8.30;2.80;;;22.80;99.90;;;;;;4995129;28;20441;-88
2021/09/12 11:59:10;;;;;;;4.50;2.63;;;23.20;99.90;;;;;;4997511;28;20445;-86
2021/09/12 12:01:39;;;;;;;4.77;3.67;;;23.70;99.90;;;;;;5002582;28;20488;-89
2021/09/12 12:04:08;;;;;;;3.10;2.17;;;23.60;99.50;;;;;;5003681;28;20484;-87
2021/09/12 12:06:36;;;;;;;2.30;2.10;;;;;;;;;;5000440;28;20459;-87
2021/09/12 12:09:08;;;;;;;2.50;2.10;;;24.30;99.70;;;;;;5007818;28;20449;-89
2021/09/12 12:11:37;;;;;;;2.53;2.10;;;24.90;97.90;;;;;;5003881;28;20945;-87
2021/09/12 12:14:05;;;;;;;3.73;2.40;;;25.00;96.80;;;;;;4997849;28;20450;-87
2021/09/12 12:16:42;;;;;;;2.30;2.07;;;25.40;95.60;;;;;;4997217;28;20453;-87
2021/09/12 12:19:12;;;;;;;4.47;2.60;;;26.00;94.50;;;;;;4996727;28;20456;-94
2021/09/12 12:21:39;;;;;;;2.60;2.40;;;;;;;;;;4996623;28;20501;-86
2021/09/12 12:24:24;;;;;;;2.20;1.80;;;26.10;94.90;;;;;;4997537;28;20449;-88
2021/09/12 12:26:53;;;;;;;2.30;2.10;;;25.60;95.30;;;;;;4997344;28;20441;-90
2021/09/12 12:29:29;;;;;;;2.40;2.20;;;26.40;99.90;;;;;;4999082;28;20445;-89
2021/09/12 12:31:58;;;;;;;2.27;2.07;;;26.60;93.80;;;;;;4997428;28;20993;-93
2021/09/12 12:34:45;;;;;;;2.20;2.00;;;26.60;99.90;;;;;;4995951;28;20964;-94
2021/09/12 12:37:13;;;;;;;3.80;1.60;;;25.80;97.30;;;;;;4996422;28;20744;-87
2021/09/12 12:39:41;;;;;;;5.07;2.47;;;;;;;;;;4995883;28;20448;-90
2021/09/12 12:42:09;;;;;;;1.90;1.80;;;25.40;98.40;;;;;;4998421;28;20489;-91
2021/09/12 12:44:43;;;;;;;2.40;2.20;;;25.50;97.20;;;;;;4994972;28;20453;-90
2021/09/12 12:47:11;;;;;;;2.07;1.87;;;;;;;;;;4995607;28;20455;-88
2021/09/12 12:49:38;;;;;;;3.67;1.97;;;;;;;;;;4995376;28;20478;-86
2021/09/12 12:52:25;;;;;;;4.27;2.03;;;24.00;96.70;;;;;;4995292;28;20453;-87
2021/09/12 12:54:53;;;;;;;2.67;2.20;;;;;;;;;;4992608;28;20577;-88
2021/09/12 12:57:20;;;;;;;1.90;1.63;;;;;;;;;;4995208;28;20449;-90
2021/09/12 12:59:49;;;;;;;1.87;1.77;;;23.50;99.90;;;;;;4994603;28;20453;-91
2021/09/12 13:02:16;;;;;;;1.97;1.83;;;;;;;;;;4995408;28;20500;-89
2021/09/12 13:04:43;;;;;;;2.23;2.07;;;;;;;;;;4995500;28;20448;-89
2021/09/12 13:07:12;;;;;;;1.70;1.60;;;23.10;99.90;;;;;;4995278;28;20449;-88
2021/09/12 13:09:39;;;;;;;1.97;1.77;;;;;;;;;;4995257;28;20490;-88
2021/09/12 13:12:08;;;;;;;1.90;1.80;;;22.60;99.90;;;;;;4995663;28;20468;-89
2021/09/12 13:14:35;;;;;;;3.80;2.00;;;;;;;;;;5000690;28;20453;-89
2021/09/12 13:17:02;;;;;;;2.60;2.40;;;;;;;;;;4999457;28;20476;-87
2021/09/12 13:19:30;;;;;;;2.30;2.10;;;;;;;;;;4994907;28;20449;-87
2021/09/12 13:21:57;;;;;;;2.30;2.10;;;;;;;;;;4990469;28;20489;-88
2021/09/12 13:24:26;;;;;;;2.27;1.90;;;22.80;99.90;;;;;;4995089;28;20465;-87
2021/09/12 13:26:53;;;;;;;1.97;1.80;;;;;;;;;;4994887;28;20871;-88
2021/09/12 13:29:24;;;;;;;2.00;1.90;;;;;;;;;;4995799;28;20449;-86
2021/09/12 13:31:51;;;;;;;2.10;1.90;;;;;;;;;;4992697;28;20469;-89
2021/09/12 13:34:18;;;;;;;3.10;2.20;;;;;;;;;;4994708;28;20445;-87
2021/09/12 13:36:45;;;;;;;2.87;2.27;;;;;;;;;;4995938;28;20784;-87
2021/09/12 13:39:12;;;;;;;2.10;1.90;;;;;;;;;;4992707;28;20464;-87
2021/09/12 13:41:41;;;;;;;2.10;1.97;;;25.80;94.20;;;;;;4999080;28;20457;-88
2021/09/12 13:44:08;;;;;;;4.13;1.87;;;;;;;;;;4993751;28;20956;-87
2021/09/12 13:46:35;;;;;;;2.47;1.93;;;;;;;;;;4994682;28;20528;-88
2021/09/12 13:49:03;;;;;;;2.00;1.80;;;;;;;;;;4994697;28;20459;-87
2021/09/12 13:51:30;;;;;;;1.77;1.67;;;;;;;;;;4992712;28;20460;-90
2021/09/12 13:53:57;;;;;;;1.83;1.73;;;;;;;;;;4994633;28;20449;-88
2021/09/12 13:56:24;;;;;;;2.07;1.73;;;;;;;;;;4994402;28;20449;-88
2021/09/12 13:58:52;;;;;;;1.70;1.60;;;23.40;99.90;;;;;;4994717;28;20461;-87
2021/09/12 14:01:20;;;;;;;2.00;1.87;;;;;;;;;;4994267;28;20449;-88
2021/09/12 14:03:47;;;;;;;1.93;1.83;;;;;;;;;;4994041;28;20495;-87
2021/09/12 14:06:14;;;;;;;1.80;1.70;;;;;;;;;;4993769;28;20460;-89
2021/09/12 14:08:41;;;;;;;2.40;2.20;;;;;;;;;;4991174;28;20438;-87
2021/09/12 14:11:10;;;;;;;2.40;2.20;;;;;;;;;;4991090;28;20480;-88
2021/09/12 14:13:38;;;;;;;2.03;1.93;;;;;;;;;;4991814;28;20453;-89
2021/09/12 14:16:06;;;;;;;3.00;1.70;;;23.30;99.90;;;;;;4993022;28;20460;-88